createdAt,value
2017-07-20T00:00:01.495Z,21.2
2017-07-20T00:00:11.488Z,21.1
2017-07-20T00:00:21.486Z,21.1
2017-07-20T00:00:31.485Z,21.1
2017-07-20T00:00:41.479Z,21.1
2017-07-20T00:00:51.476Z,21.2
2017-07-20T00:01:01.468Z,21.1
2017-07-20T00:01:11.464Z,21
2017-07-20T00:01:21.460Z,21.1
2017-07-20T00:01:31.453Z,21.1
2017-07-20T00:01:41.450Z,21.1
2017-07-20T00:01:51.447Z,21.2
2017-07-20T00:02:01.441Z,21.2
2017-07-20T00:02:11.436Z,21.2
2017-07-20T00:02:21.431Z,21.2
2017-07-20T00:02:31.429Z,21.1
2017-07-20T00:02:41.423Z,21.2
2017-07-20T00:02:51.420Z,21.1
2017-07-20T00:03:01.412Z,21.1
2017-07-20T00:03:11.407Z,21.1
2017-07-20T00:03:21.406Z,21.1
2017-07-20T00:03:31.396Z,21.1
2017-07-20T00:03:41.396Z,21.2
2017-07-20T00:03:51.388Z,21.1
2017-07-20T00:04:01.385Z,21.1
2017-07-20T00:04:11.379Z,21.1
2017-07-20T00:04:21.377Z,21.2
2017-07-20T00:04:31.369Z,21.1
2017-07-20T00:04:41.365Z,21.1
2017-07-20T00:04:51.358Z,21.1
2017-07-20T00:05:01.354Z,21.1
2017-07-20T00:05:11.348Z,21.1
2017-07-20T00:05:21.345Z,21.1
2017-07-20T00:05:31.343Z,21.1
2017-07-20T00:05:41.338Z,21.1
2017-07-20T00:05:51.333Z,21.1
2017-07-20T00:06:01.324Z,21.1
2017-07-20T00:06:11.324Z,21.2
2017-07-20T00:06:21.316Z,21.1
2017-07-20T00:06:31.316Z,21.2
2017-07-20T00:06:41.307Z,21.2
2017-07-20T00:06:51.305Z,21.1
2017-07-20T00:07:01.296Z,21
2017-07-20T00:07:11.298Z,21.2
2017-07-20T00:07:21.290Z,21.1
2017-07-20T00:07:31.286Z,21.3
2017-07-20T00:07:41.280Z,21.2
2017-07-20T00:07:51.279Z,21.2
2017-07-20T00:08:01.269Z,21.1
2017-07-20T00:08:11.269Z,21.2
2017-07-20T00:08:21.260Z,21.3
2017-07-20T00:08:31.257Z,21.2
2017-07-20T00:08:41.254Z,21
2017-07-20T00:08:51.249Z,21.2
2017-07-20T00:09:01.243Z,21.2
2017-07-20T00:09:11.240Z,21.1
2017-07-20T00:09:21.233Z,21.2
2017-07-20T00:09:31.227Z,21
2017-07-20T00:09:41.224Z,21.1
2017-07-20T00:09:51.222Z,21.2
2017-07-20T00:10:01.220Z,21.2
2017-07-20T00:10:11.211Z,21.2
2017-07-20T00:10:21.208Z,21.2
2017-07-20T00:10:31.203Z,21.1
2017-07-20T00:10:41.200Z,21.2
2017-07-20T00:10:51.189Z,21.1
2017-07-20T00:11:01.187Z,21.1
2017-07-20T00:11:11.183Z,21.2
2017-07-20T00:11:21.177Z,21.3
2017-07-20T00:11:31.174Z,21.2
2017-07-20T00:11:41.174Z,21.2
2017-07-20T00:11:51.165Z,21.2
2017-07-20T00:12:01.157Z,21.2
2017-07-20T00:12:11.152Z,21.1
2017-07-20T00:12:21.152Z,21.1
2017-07-20T00:12:31.150Z,21.1
2017-07-20T00:12:41.141Z,21.2
2017-07-20T00:12:51.137Z,21.2
2017-07-20T00:13:01.130Z,21.1
2017-07-20T00:13:11.130Z,21.2
2017-07-20T00:13:21.123Z,21.1
2017-07-20T00:13:31.114Z,21.1
2017-07-20T00:13:41.113Z,21.1
2017-07-20T00:13:51.109Z,21.1
2017-07-20T00:14:01.103Z,21.1
2017-07-20T00:14:11.107Z,21.1
2017-07-20T00:14:21.093Z,21
2017-07-20T00:14:31.094Z,21.1
2017-07-20T00:14:41.084Z,21.1
2017-07-20T00:14:51.080Z,21.1
2017-07-20T00:15:01.079Z,21.1
2017-07-20T00:15:11.071Z,21.1
2017-07-20T00:15:21.064Z,21.1
2017-07-20T00:15:31.059Z,21.1
2017-07-20T00:15:41.058Z,21.2
2017-07-20T00:15:51.059Z,21.1
2017-07-20T00:16:01.049Z,21.2
2017-07-20T00:16:11.043Z,21.1
2017-07-20T00:16:21.035Z,21.1
2017-07-20T00:16:31.034Z,21.1
2017-07-20T00:16:41.029Z,21.1
2017-07-20T00:16:51.024Z,21.1
2017-07-20T00:17:01.020Z,21.1
2017-07-20T00:17:11.015Z,21.1
2017-07-20T00:17:21.008Z,21.1
2017-07-20T00:17:31.001Z,21.1
2017-07-20T00:17:40.999Z,21.1
2017-07-20T00:17:50.999Z,21.1
2017-07-20T00:18:00.991Z,21.1
2017-07-20T00:18:10.988Z,21.1
2017-07-20T00:18:20.984Z,21.1
2017-07-20T00:18:30.976Z,21.1
2017-07-20T00:18:40.977Z,21.1
2017-07-20T00:18:50.968Z,21.2
2017-07-20T00:19:00.961Z,21.1
2017-07-20T00:19:10.962Z,21.1
2017-07-20T00:19:20.960Z,21.1
2017-07-20T00:19:30.950Z,21.2
2017-07-20T00:19:40.945Z,21.1
2017-07-20T00:19:50.938Z,21.1
2017-07-20T00:20:00.934Z,21
2017-07-20T00:20:10.932Z,21.1
2017-07-20T00:20:20.926Z,21
2017-07-20T00:20:30.922Z,21.1
2017-07-20T00:20:40.918Z,21.1
2017-07-20T00:20:50.912Z,21.1
2017-07-20T00:21:00.909Z,21.3
2017-07-20T00:21:10.899Z,21.2
2017-07-20T00:21:20.901Z,21.3
2017-07-20T00:21:30.895Z,21.2
2017-07-20T00:21:40.912Z,21.3
2017-07-20T00:21:50.886Z,21.3
2017-07-20T00:22:00.878Z,21.3
2017-07-20T00:22:10.870Z,21.4
2017-07-20T00:22:20.870Z,21.4
2017-07-20T00:22:30.864Z,21.4
2017-07-20T00:22:40.861Z,21.3
2017-07-20T00:22:50.854Z,21.3
2017-07-20T00:23:00.846Z,21.1
2017-07-20T00:23:10.845Z,21.2
2017-07-20T00:23:20.848Z,21.2
2017-07-20T00:23:30.837Z,21.3
2017-07-20T00:23:40.831Z,21.2
2017-07-20T00:23:50.860Z,21.2
2017-07-20T00:24:00.823Z,21.1
2017-07-20T00:24:10.817Z,21.2
2017-07-20T00:24:20.817Z,21.1
2017-07-20T00:24:30.811Z,21.1
2017-07-20T00:24:40.801Z,21.1
2017-07-20T00:24:50.804Z,21.1
2017-07-20T00:25:00.798Z,21.1
2017-07-20T00:25:10.790Z,21.1
2017-07-20T00:25:20.788Z,21.2
2017-07-20T00:25:30.778Z,21.2
2017-07-20T00:25:40.773Z,21.2
2017-07-20T00:25:50.771Z,21.1
2017-07-20T00:26:00.767Z,21.2
2017-07-20T00:26:10.761Z,21.2
2017-07-20T00:26:20.759Z,21.1
2017-07-20T00:26:30.751Z,21.2
2017-07-20T00:26:40.747Z,21.2
2017-07-20T00:26:50.746Z,21
2017-07-20T00:27:00.741Z,21.1
2017-07-20T00:27:10.734Z,21.1
2017-07-20T00:27:20.725Z,21.2
2017-07-20T00:27:30.725Z,21.1
2017-07-20T00:27:40.720Z,21.2
2017-07-20T00:27:50.715Z,21.2
2017-07-20T00:28:00.712Z,21.1
2017-07-20T00:28:10.704Z,21.1
2017-07-20T00:28:20.701Z,21.1
2017-07-20T00:28:30.693Z,21.1
2017-07-20T00:28:40.689Z,21.1
2017-07-20T00:28:50.686Z,21.1
2017-07-20T00:29:00.679Z,21.2
2017-07-20T00:29:10.680Z,21.2
2017-07-20T00:29:20.673Z,21.2
2017-07-20T00:29:30.664Z,21.3
2017-07-20T00:29:40.663Z,21.3
2017-07-20T00:29:50.656Z,21.3
2017-07-20T00:30:00.651Z,21.3
2017-07-20T00:30:10.646Z,21.3
2017-07-20T00:30:20.646Z,21.3
2017-07-20T00:30:30.643Z,21.3
2017-07-20T00:30:40.635Z,21.3
2017-07-20T00:30:50.626Z,21.2
2017-07-20T00:31:00.628Z,21.1
2017-07-20T00:31:10.618Z,21.2
2017-07-20T00:31:20.619Z,21.2
2017-07-20T00:31:30.613Z,21.2
2017-07-20T00:31:40.604Z,21.1
2017-07-20T00:31:50.602Z,21.1
2017-07-20T00:32:00.597Z,21.1
2017-07-20T00:32:10.593Z,21.1
2017-07-20T00:32:20.590Z,21.2
2017-07-20T00:32:30.586Z,21.1
2017-07-20T00:32:40.579Z,21.1
2017-07-20T00:32:50.577Z,21.1
2017-07-20T00:33:00.568Z,21.1
2017-07-20T00:33:10.565Z,21.2
2017-07-20T00:33:20.560Z,21.2
2017-07-20T00:33:30.553Z,21.1
2017-07-20T00:33:40.554Z,21.2
2017-07-20T00:33:50.543Z,21.3
2017-07-20T00:34:00.545Z,21.3
2017-07-20T00:34:10.536Z,21.2
2017-07-20T00:34:20.530Z,21.2
2017-07-20T00:34:30.525Z,21.2
2017-07-20T00:34:40.522Z,21.1
2017-07-20T00:34:50.518Z,21.2
2017-07-20T00:35:00.510Z,21.2
2017-07-20T00:35:10.506Z,21.2
2017-07-20T00:35:20.500Z,21.1
2017-07-20T00:35:30.497Z,21.1
2017-07-20T00:35:40.495Z,21.1
2017-07-20T00:35:50.488Z,21.2
2017-07-20T00:36:00.485Z,21.2
2017-07-20T00:36:10.478Z,21.2
2017-07-20T00:36:20.473Z,21.1
2017-07-20T00:36:30.471Z,21.2
2017-07-20T00:36:40.464Z,21.1
2017-07-20T00:36:50.460Z,21.2
2017-07-20T00:37:00.461Z,21.1
2017-07-20T00:37:10.449Z,21.2
2017-07-20T00:37:20.445Z,21.1
2017-07-20T00:37:30.444Z,21.1
2017-07-20T00:37:40.435Z,21.1
2017-07-20T00:37:50.431Z,21.1
2017-07-20T00:38:00.424Z,21.2
2017-07-20T00:38:10.425Z,21.2
2017-07-20T00:38:20.418Z,21.2
2017-07-20T00:38:30.417Z,21.2
2017-07-20T00:38:40.415Z,21.3
2017-07-20T00:38:50.407Z,21.3
2017-07-20T00:39:00.400Z,21.3
2017-07-20T00:39:10.396Z,21.4
2017-07-20T00:39:20.388Z,21.3
2017-07-20T00:39:30.385Z,21.3
2017-07-20T00:39:40.382Z,21.4
2017-07-20T00:39:50.377Z,21.4
2017-07-20T00:40:00.373Z,21.4
2017-07-20T00:40:10.370Z,21.4
2017-07-20T00:40:20.363Z,21.4
2017-07-20T00:40:30.360Z,21.3
2017-07-20T00:40:40.350Z,21.4
2017-07-20T00:40:50.349Z,21.4
2017-07-20T00:41:00.347Z,21.4
2017-07-20T00:41:10.344Z,21.4
2017-07-20T00:41:20.335Z,21.3
2017-07-20T00:41:30.329Z,21.3
2017-07-20T00:41:40.326Z,21.3
2017-07-20T00:41:50.321Z,21.3
2017-07-20T00:42:00.318Z,21.3
2017-07-20T00:42:10.308Z,21.3
2017-07-20T00:42:20.307Z,21.2
2017-07-20T00:42:30.301Z,21.3
2017-07-20T00:42:40.297Z,21.2
2017-07-20T00:42:50.293Z,21.2
2017-07-20T00:43:00.292Z,21.2
2017-07-20T00:43:10.286Z,21.1
2017-07-20T00:43:20.280Z,21.1
2017-07-20T00:43:30.272Z,21.2
2017-07-20T00:43:40.272Z,21.1
2017-07-20T00:43:50.267Z,21.1
2017-07-20T00:44:00.264Z,21.1
2017-07-20T00:44:10.252Z,21.1
2017-07-20T00:44:20.253Z,21.2
2017-07-20T00:44:30.246Z,21.2
2017-07-20T00:44:40.242Z,21.1
2017-07-20T00:44:50.234Z,21.2
2017-07-20T00:45:00.235Z,21.1
2017-07-20T00:45:10.226Z,21.1
2017-07-20T00:45:20.232Z,21.1
2017-07-20T00:45:30.217Z,21.1
2017-07-20T00:45:40.211Z,21.2
2017-07-20T00:45:50.212Z,21.1
2017-07-20T00:46:00.200Z,21.3
2017-07-20T00:46:10.197Z,21.2
2017-07-20T00:46:20.195Z,21.2
2017-07-20T00:46:30.192Z,21.2
2017-07-20T00:46:40.181Z,21.2
2017-07-20T00:46:50.180Z,21.3
2017-07-20T00:47:00.172Z,21.2
2017-07-20T00:47:10.170Z,21.2
2017-07-20T00:47:20.164Z,21.2
2017-07-20T00:47:30.161Z,21.2
2017-07-20T00:47:40.155Z,21.2
2017-07-20T00:47:50.154Z,21.2
2017-07-20T00:48:00.147Z,21.2
2017-07-20T00:48:10.147Z,21.2
2017-07-20T00:48:20.141Z,21.2
2017-07-20T00:48:30.130Z,21.1
2017-07-20T00:48:40.124Z,21.1
2017-07-20T00:48:50.122Z,21.1
2017-07-20T00:49:00.118Z,21.1
2017-07-20T00:49:10.116Z,21.2
2017-07-20T00:49:20.110Z,21
2017-07-20T00:49:30.104Z,21.1
2017-07-20T00:49:40.100Z,21.1
2017-07-20T00:49:50.100Z,21.1
2017-07-20T00:50:00.091Z,21.1
2017-07-20T00:50:10.086Z,21.2
2017-07-20T00:50:20.081Z,21.2
2017-07-20T00:50:30.073Z,21.1
2017-07-20T00:50:40.071Z,21.2
2017-07-20T00:50:50.066Z,21.2
2017-07-20T00:51:00.062Z,21.2
2017-07-20T00:51:10.056Z,21.2
2017-07-20T00:51:20.051Z,21.1
2017-07-20T00:51:30.048Z,21.2
2017-07-20T00:51:40.044Z,21.3
2017-07-20T00:51:50.041Z,21.2
2017-07-20T00:52:00.035Z,21.2
2017-07-20T00:52:10.030Z,21.3
2017-07-20T00:52:20.021Z,21.3
2017-07-20T00:52:30.021Z,21.3
2017-07-20T00:52:40.012Z,21.4
2017-07-20T00:52:50.013Z,21.3
2017-07-20T00:53:00.004Z,21.3
2017-07-20T00:53:10.004Z,21.4
2017-07-20T00:53:20.002Z,21.3
2017-07-20T00:53:29.988Z,21.4
2017-07-20T00:53:39.987Z,21.3
2017-07-20T00:53:49.983Z,21.3
2017-07-20T00:53:59.974Z,21.2
2017-07-20T00:54:09.970Z,21.2
2017-07-20T00:54:19.970Z,21.2
2017-07-20T00:54:29.966Z,21.2
2017-07-20T00:54:39.959Z,21.3
2017-07-20T00:54:49.955Z,21.2
2017-07-20T00:54:59.949Z,21.3
2017-07-20T00:55:09.942Z,21.2
2017-07-20T00:55:19.940Z,21.2
2017-07-20T00:55:29.936Z,21.1
2017-07-20T00:55:39.930Z,21.1
2017-07-20T00:55:49.926Z,21.2
2017-07-20T00:55:59.923Z,21.2
2017-07-20T00:56:09.919Z,21.2
2017-07-20T00:56:19.912Z,21.2
2017-07-20T00:56:29.910Z,21.3
2017-07-20T00:56:39.903Z,21.3
2017-07-20T00:56:49.898Z,21.3
2017-07-20T00:56:59.889Z,21.2
2017-07-20T00:57:09.887Z,21.2
2017-07-20T00:57:19.882Z,21.3
2017-07-20T00:57:29.878Z,21.3
2017-07-20T00:57:39.877Z,21.4
2017-07-20T00:57:49.869Z,21.3
2017-07-20T00:57:59.870Z,21.3
2017-07-20T00:58:09.863Z,21.3
2017-07-20T00:58:19.856Z,21.3
2017-07-20T00:58:29.850Z,21.3
2017-07-20T00:58:39.844Z,21.4
2017-07-20T00:58:49.837Z,21.3
2017-07-20T00:58:59.835Z,21.3
2017-07-20T00:59:09.830Z,21.3
2017-07-20T00:59:19.827Z,21.3
2017-07-20T00:59:29.825Z,21.1
2017-07-20T00:59:39.821Z,21.3
2017-07-20T00:59:49.811Z,21.4
2017-07-20T00:59:59.810Z,21.3
2017-07-20T01:00:09.801Z,21.3
2017-07-20T01:00:19.798Z,21.3
2017-07-20T01:00:29.792Z,21.3
2017-07-20T01:00:39.794Z,21.3
2017-07-20T01:00:49.788Z,21.3
2017-07-20T01:00:59.783Z,21.3
2017-07-20T01:01:09.772Z,21.2
2017-07-20T01:01:19.771Z,21.2
2017-07-20T01:01:29.766Z,21.2
2017-07-20T01:01:39.762Z,21.1
2017-07-20T01:01:49.754Z,21.2
2017-07-20T01:01:59.751Z,21.3
2017-07-20T01:02:09.748Z,21.1
2017-07-20T01:02:19.746Z,21.1
2017-07-20T01:02:29.739Z,21.1
2017-07-20T01:02:39.736Z,21.1
2017-07-20T01:02:49.727Z,21.3
2017-07-20T01:02:59.721Z,21.3
2017-07-20T01:03:09.722Z,21.4
2017-07-20T01:03:19.715Z,21.3
2017-07-20T01:03:29.710Z,21.3
2017-07-20T01:03:39.705Z,21.3
2017-07-20T01:03:49.703Z,21.3
2017-07-20T01:03:59.700Z,21.4
2017-07-20T01:04:09.689Z,21.4
2017-07-20T01:04:19.688Z,21.3
2017-07-20T01:04:29.683Z,21.4
2017-07-20T01:04:39.677Z,21.2
2017-07-20T01:04:49.675Z,21.3
2017-07-20T01:04:59.669Z,21.3
2017-07-20T01:05:09.660Z,21.2
2017-07-20T01:05:19.659Z,21.2
2017-07-20T01:05:29.656Z,21.1
2017-07-20T01:05:39.645Z,21.3
2017-07-20T01:05:49.647Z,21.1
2017-07-20T01:05:59.641Z,21.3
2017-07-20T01:06:09.634Z,21.4
2017-07-20T01:06:19.627Z,21.3
2017-07-20T01:06:29.625Z,21.3
2017-07-20T01:06:39.618Z,21.3
2017-07-20T01:06:49.638Z,21.2
2017-07-20T01:06:59.609Z,21.4
2017-07-20T01:07:09.607Z,21.4
2017-07-20T01:07:19.601Z,21.4
2017-07-20T01:07:29.597Z,21.3
2017-07-20T01:07:39.593Z,21.4
2017-07-20T01:07:49.586Z,21.4
2017-07-20T01:07:59.586Z,21.4
2017-07-20T01:08:09.578Z,21.4
2017-07-20T01:08:19.574Z,21.3
2017-07-20T01:08:29.581Z,21.4
2017-07-20T01:08:39.563Z,21.4
2017-07-20T01:08:49.559Z,21.4
2017-07-20T01:08:59.555Z,21.5
2017-07-20T01:09:09.551Z,21.5
2017-07-20T01:09:19.543Z,21.4
2017-07-20T01:09:29.538Z,21.5
2017-07-20T01:09:39.536Z,21.4
2017-07-20T01:09:49.528Z,21.4
2017-07-20T01:09:59.524Z,21.4
2017-07-20T01:10:09.527Z,21.3
2017-07-20T01:10:19.517Z,21.1
2017-07-20T01:10:29.512Z,21.3
2017-07-20T01:10:39.509Z,21.1
2017-07-20T01:10:49.502Z,21.3
2017-07-20T01:10:59.506Z,21.3
2017-07-20T01:11:09.493Z,21.3
2017-07-20T01:11:19.489Z,21.3
2017-07-20T01:11:29.486Z,21.3
2017-07-20T01:11:39.481Z,21.4
2017-07-20T01:11:49.477Z,21.2
2017-07-20T01:11:59.467Z,21.3
2017-07-20T01:12:09.464Z,21.3
2017-07-20T01:12:19.461Z,21.2
2017-07-20T01:12:29.456Z,21.3
2017-07-20T01:12:39.451Z,21.3
2017-07-20T01:12:49.443Z,21.3
2017-07-20T01:12:59.445Z,21.3
2017-07-20T01:13:09.436Z,21.3
2017-07-20T01:13:19.434Z,21.3
2017-07-20T01:13:29.424Z,21.3
2017-07-20T01:13:39.423Z,21.3
2017-07-20T01:13:49.419Z,21.3
2017-07-20T01:13:59.412Z,21.4
2017-07-20T01:14:09.406Z,21.4
2017-07-20T01:14:19.405Z,21.3
2017-07-20T01:14:29.397Z,21.2
2017-07-20T01:14:39.394Z,21.3
2017-07-20T01:14:49.392Z,21.3
2017-07-20T01:14:59.382Z,21.4
2017-07-20T01:15:09.383Z,21.3
2017-07-20T01:15:19.379Z,21.3
2017-07-20T01:15:29.373Z,21.3
2017-07-20T01:15:39.368Z,21.3
2017-07-20T01:15:49.364Z,21.4
2017-07-20T01:15:59.357Z,21.4
2017-07-20T01:16:09.352Z,21.3
2017-07-20T01:16:19.349Z,21.4
2017-07-20T01:16:29.344Z,21.4
2017-07-20T01:16:39.338Z,21.4
2017-07-20T01:16:49.331Z,21.4
2017-07-20T01:16:59.329Z,21.4
2017-07-20T01:17:09.323Z,21.4
2017-07-20T01:17:19.317Z,21.5
2017-07-20T01:17:29.311Z,21.4
2017-07-20T01:17:39.307Z,21.4
2017-07-20T01:17:49.308Z,21.5
2017-07-20T01:17:59.297Z,21.4
2017-07-20T01:18:09.296Z,21.4
2017-07-20T01:18:19.291Z,21.4
2017-07-20T01:18:29.286Z,21.4
2017-07-20T01:18:39.287Z,21.4
2017-07-20T01:18:49.275Z,21.4
2017-07-20T01:18:59.271Z,21.2
2017-07-20T01:19:09.267Z,21.3
2017-07-20T01:19:19.263Z,21.3
2017-07-20T01:19:29.260Z,21.4
2017-07-20T01:19:39.255Z,21.3
2017-07-20T01:19:49.246Z,21.3
2017-07-20T01:19:59.245Z,21.1
2017-07-20T01:20:09.239Z,21.3
2017-07-20T01:20:19.233Z,21.2
2017-07-20T01:20:29.234Z,21.3
2017-07-20T01:20:39.225Z,21
2017-07-20T01:20:49.221Z,21.2
2017-07-20T01:20:59.213Z,21.1
2017-07-20T01:21:09.210Z,21.1
2017-07-20T01:21:19.217Z,21.1
2017-07-20T01:21:29.201Z,21.1
2017-07-20T01:21:39.200Z,21.1
2017-07-20T01:21:49.194Z,21.1
2017-07-20T01:21:59.188Z,21.1
2017-07-20T01:22:09.181Z,21.1
2017-07-20T01:22:19.179Z,21.1
2017-07-20T01:22:29.176Z,21.1
2017-07-20T01:22:39.168Z,21.2
2017-07-20T01:22:49.166Z,21.1
2017-07-20T01:22:59.163Z,21.1
2017-07-20T01:23:09.155Z,21.2
2017-07-20T01:23:19.150Z,21.2
2017-07-20T01:23:29.142Z,21.2
2017-07-20T01:23:39.141Z,21.2
2017-07-20T01:23:49.134Z,21.1
2017-07-20T01:23:59.134Z,21.1
2017-07-20T01:24:09.129Z,21
2017-07-20T01:24:19.122Z,21.2
2017-07-20T01:24:29.116Z,21.1
2017-07-20T01:24:39.115Z,21.1
2017-07-20T01:24:49.108Z,21.1
2017-07-20T01:24:59.104Z,21.1
2017-07-20T01:25:09.101Z,21.1
2017-07-20T01:25:19.094Z,21.1
2017-07-20T01:25:29.091Z,21.1
2017-07-20T01:25:39.084Z,21.1
2017-07-20T01:25:49.083Z,21.2
2017-07-20T01:25:59.073Z,21.1
2017-07-20T01:26:09.068Z,21.1
2017-07-20T01:26:19.066Z,21.1
2017-07-20T01:26:29.072Z,21
2017-07-20T01:26:39.057Z,21
2017-07-20T01:26:49.051Z,21
2017-07-20T01:26:59.048Z,21
2017-07-20T01:27:09.039Z,21
2017-07-20T01:27:19.040Z,21
2017-07-20T01:27:29.036Z,21.2
2017-07-20T01:27:39.045Z,21.1
2017-07-20T01:27:49.026Z,21.1
2017-07-20T01:27:59.019Z,21.1
2017-07-20T01:28:09.009Z,21.2
2017-07-20T01:28:19.009Z,21.1
2017-07-20T01:28:29.005Z,21
2017-07-20T01:28:38.998Z,21
2017-07-20T01:28:48.995Z,21
2017-07-20T01:28:58.993Z,20.9
2017-07-20T01:29:08.985Z,21
2017-07-20T01:29:18.979Z,20.9
2017-07-20T01:29:28.976Z,20.9
2017-07-20T01:29:38.970Z,21
2017-07-20T01:29:48.966Z,21
2017-07-20T01:29:58.962Z,21
2017-07-20T01:30:08.959Z,21
2017-07-20T01:30:18.951Z,21
2017-07-20T01:30:28.947Z,20.9
2017-07-20T01:30:38.945Z,20.9
2017-07-20T01:30:48.938Z,21
2017-07-20T01:30:58.933Z,20.9
2017-07-20T01:31:08.932Z,20.9
2017-07-20T01:31:18.927Z,20.9
2017-07-20T01:31:28.919Z,20.9
2017-07-20T01:31:38.912Z,20.9
2017-07-20T01:31:48.911Z,20.9
2017-07-20T01:31:58.906Z,20.9
2017-07-20T01:32:08.903Z,20.9
2017-07-20T01:32:18.896Z,20.8
2017-07-20T01:32:28.892Z,20.8
2017-07-20T01:32:38.885Z,20.9
2017-07-20T01:32:48.888Z,20.8
2017-07-20T01:32:58.877Z,20.8
2017-07-20T01:33:08.870Z,20.8
2017-07-20T01:33:18.864Z,20.8
2017-07-20T01:33:28.858Z,20.8
2017-07-20T01:33:38.855Z,20.8
2017-07-20T01:33:48.854Z,20.8
2017-07-20T01:33:58.852Z,20.8
2017-07-20T01:34:08.848Z,20.8
2017-07-20T01:34:18.838Z,20.8
2017-07-20T01:34:28.837Z,20.8
2017-07-20T01:34:38.833Z,20.8
2017-07-20T01:34:48.823Z,20.8
2017-07-20T01:34:58.823Z,20.8
2017-07-20T01:35:08.813Z,20.8
2017-07-20T01:35:18.812Z,20.8
2017-07-20T01:35:28.805Z,20.8
2017-07-20T01:35:38.805Z,20.8
2017-07-20T01:35:48.797Z,20.8
2017-07-20T01:35:58.817Z,20.8
2017-07-20T01:36:08.790Z,20.8
2017-07-20T01:36:18.782Z,20.8
2017-07-20T01:36:28.778Z,20.8
2017-07-20T01:36:38.768Z,20.8
2017-07-20T01:36:48.768Z,20.8
2017-07-20T01:36:58.761Z,20.8
2017-07-20T01:37:08.758Z,20.8
2017-07-20T01:37:18.755Z,20.8
2017-07-20T01:37:28.748Z,20.7
2017-07-20T01:37:38.745Z,20.7
2017-07-20T01:37:48.742Z,20.7
2017-07-20T01:37:58.735Z,20.7
2017-07-20T01:38:08.731Z,20.7
2017-07-20T01:38:18.727Z,20.7
2017-07-20T01:38:28.724Z,20.7
2017-07-20T01:38:38.719Z,20.8
2017-07-20T01:38:48.714Z,20.7
2017-07-20T01:38:58.707Z,20.6
2017-07-20T01:39:08.699Z,20.8
2017-07-20T01:39:18.697Z,20.8
2017-07-20T01:39:28.694Z,20.7
2017-07-20T01:39:38.690Z,20.8
2017-07-20T01:39:48.683Z,20.7
2017-07-20T01:39:58.676Z,20.9
2017-07-20T01:40:08.670Z,20.8
2017-07-20T01:40:18.668Z,20.8
2017-07-20T01:40:28.665Z,20.8
2017-07-20T01:40:38.662Z,20.8
2017-07-20T01:40:48.654Z,20.8
2017-07-20T01:40:58.647Z,20.9
2017-07-20T01:41:08.648Z,20.8
2017-07-20T01:41:18.642Z,20.9
2017-07-20T01:41:28.635Z,20.9
2017-07-20T01:41:38.629Z,20.9
2017-07-20T01:41:48.627Z,20.9
2017-07-20T01:41:58.625Z,20.8
2017-07-20T01:42:08.618Z,20.8
2017-07-20T01:42:18.610Z,20.9
2017-07-20T01:42:28.606Z,20.9
2017-07-20T01:42:38.608Z,20.9
2017-07-20T01:42:48.599Z,21
2017-07-20T01:42:58.591Z,20.9
2017-07-20T01:43:08.594Z,20.9
2017-07-20T01:43:18.583Z,20.9
2017-07-20T01:43:28.580Z,20.9
2017-07-20T01:43:38.577Z,20.9
2017-07-20T01:43:48.572Z,20.9
2017-07-20T01:43:58.566Z,20.9
2017-07-20T01:44:08.558Z,20.9
2017-07-20T01:44:18.557Z,20.9
2017-07-20T01:44:28.555Z,20.9
2017-07-20T01:44:38.547Z,20.9
2017-07-20T01:44:48.542Z,21
2017-07-20T01:44:58.537Z,20.9
2017-07-20T01:45:08.532Z,20.9
2017-07-20T01:45:18.531Z,20.9
2017-07-20T01:45:28.522Z,20.9
2017-07-20T01:45:38.516Z,20.9
2017-07-20T01:45:48.514Z,20.9
2017-07-20T01:45:58.507Z,21
2017-07-20T01:46:08.507Z,20.9
2017-07-20T01:46:18.501Z,20.8
2017-07-20T01:46:28.494Z,20.9
2017-07-20T01:46:38.494Z,20.9
2017-07-20T01:46:48.484Z,20.9
2017-07-20T01:46:58.481Z,20.8
2017-07-20T01:47:08.477Z,20.8
2017-07-20T01:47:18.472Z,20.8
2017-07-20T01:47:28.468Z,20.8
2017-07-20T01:47:38.466Z,20.9
2017-07-20T01:47:48.457Z,20.8
2017-07-20T01:47:58.453Z,20.8
2017-07-20T01:48:08.445Z,20.8
2017-07-20T01:48:18.442Z,20.8
2017-07-20T01:48:28.442Z,20.8
2017-07-20T01:48:38.434Z,20.8
2017-07-20T01:48:48.431Z,20.8
2017-07-20T01:48:58.434Z,20.9
2017-07-20T01:49:08.420Z,21
2017-07-20T01:49:18.415Z,21
2017-07-20T01:49:28.410Z,21
2017-07-20T01:49:38.405Z,21
2017-07-20T01:49:48.404Z,20.9
2017-07-20T01:49:58.395Z,21
2017-07-20T01:50:08.391Z,21
2017-07-20T01:50:18.385Z,20.9
2017-07-20T01:50:28.384Z,21
2017-07-20T01:50:38.381Z,21
2017-07-20T01:50:48.371Z,20.9
2017-07-20T01:50:58.368Z,20.9
2017-07-20T01:51:08.360Z,20.8
2017-07-20T01:51:18.355Z,20.8
2017-07-20T01:51:28.356Z,20.8
2017-07-20T01:51:38.346Z,20.9
2017-07-20T01:51:48.341Z,20.9
2017-07-20T01:51:58.340Z,20.9
2017-07-20T01:52:08.338Z,20.8
2017-07-20T01:52:18.331Z,20.8
2017-07-20T01:52:28.326Z,20.9
2017-07-20T01:52:38.321Z,20.8
2017-07-20T01:52:48.320Z,20.9
2017-07-20T01:52:58.318Z,20.9
2017-07-20T01:53:08.304Z,20.9
2017-07-20T01:53:18.299Z,20.9
2017-07-20T01:53:28.295Z,20.9
2017-07-20T01:53:38.294Z,20.9
2017-07-20T01:53:48.284Z,20.9
2017-07-20T01:53:58.283Z,20.9
2017-07-20T01:54:08.281Z,21
2017-07-20T01:54:18.274Z,21
2017-07-20T01:54:28.269Z,20.9
2017-07-20T01:54:38.266Z,21
2017-07-20T01:54:48.259Z,20.9
2017-07-20T01:54:58.255Z,21
2017-07-20T01:55:08.250Z,21
2017-07-20T01:55:18.249Z,21
2017-07-20T01:55:28.241Z,21
2017-07-20T01:55:38.235Z,21
2017-07-20T01:55:48.230Z,21.1
2017-07-20T01:55:58.225Z,21
2017-07-20T01:56:08.220Z,21
2017-07-20T01:56:18.217Z,20.9
2017-07-20T01:56:28.211Z,20.9
2017-07-20T01:56:38.204Z,20.9
2017-07-20T01:56:48.199Z,21
2017-07-20T01:56:58.196Z,21
2017-07-20T01:57:08.196Z,21
2017-07-20T01:57:18.187Z,20.9
2017-07-20T01:57:28.182Z,21
2017-07-20T01:57:38.181Z,20.9
2017-07-20T01:57:48.175Z,21
2017-07-20T01:57:58.169Z,21
2017-07-20T01:58:08.165Z,21
2017-07-20T01:58:18.163Z,21.1
2017-07-20T01:58:28.154Z,21.1
2017-07-20T01:58:38.152Z,21.1
2017-07-20T01:58:48.148Z,21.1
2017-07-20T01:58:58.140Z,21
2017-07-20T01:59:08.137Z,20.9
2017-07-20T01:59:18.128Z,21
2017-07-20T01:59:28.122Z,21
2017-07-20T01:59:38.121Z,21
2017-07-20T01:59:48.116Z,20.9
2017-07-20T01:59:58.113Z,21
2017-07-20T02:00:08.108Z,21
2017-07-20T02:00:18.107Z,21
2017-07-20T02:00:28.098Z,21
2017-07-20T02:00:38.094Z,21
2017-07-20T02:00:48.090Z,20.9
2017-07-20T02:00:58.085Z,21
2017-07-20T02:01:08.078Z,21
2017-07-20T02:01:18.075Z,21.1
2017-07-20T02:01:28.072Z,21
2017-07-20T02:01:38.066Z,21
2017-07-20T02:01:48.063Z,20.9
2017-07-20T02:01:58.058Z,21
2017-07-20T02:02:08.051Z,20.9
2017-07-20T02:02:18.050Z,21
2017-07-20T02:02:28.042Z,21
2017-07-20T02:02:38.038Z,21
2017-07-20T02:02:48.031Z,21
2017-07-20T02:02:58.025Z,21
2017-07-20T02:03:08.024Z,21
2017-07-20T02:03:18.024Z,21
2017-07-20T02:03:28.010Z,21.1
2017-07-20T02:03:38.006Z,21
2017-07-20T02:03:48.004Z,20.9
2017-07-20T02:03:58.000Z,21
2017-07-20T02:04:07.994Z,21
2017-07-20T02:04:17.989Z,21
2017-07-20T02:04:27.988Z,21
2017-07-20T02:04:37.981Z,21
2017-07-20T02:04:47.977Z,20.9
2017-07-20T02:04:57.975Z,21
2017-07-20T02:05:07.967Z,21
2017-07-20T02:05:17.964Z,21
2017-07-20T02:05:27.956Z,20.9
2017-07-20T02:05:37.948Z,21
2017-07-20T02:05:47.947Z,21
2017-07-20T02:05:57.944Z,21
2017-07-20T02:06:07.941Z,20.9
2017-07-20T02:06:17.929Z,21
2017-07-20T02:06:27.929Z,20.9
2017-07-20T02:06:37.923Z,20.9
2017-07-20T02:06:47.921Z,20.8
2017-07-20T02:06:57.915Z,20.9
2017-07-20T02:07:07.908Z,20.9
2017-07-20T02:07:17.900Z,20.9
2017-07-20T02:07:27.904Z,20.9
2017-07-20T02:07:37.894Z,20.8
2017-07-20T02:07:47.891Z,20.8
2017-07-20T02:07:57.889Z,20.8
2017-07-20T02:08:07.881Z,20.9
2017-07-20T02:08:17.874Z,20.9
2017-07-20T02:08:27.874Z,21
2017-07-20T02:08:37.867Z,21
2017-07-20T02:08:47.864Z,21
2017-07-20T02:08:57.858Z,21
2017-07-20T02:09:07.853Z,21
2017-07-20T02:09:17.852Z,21
2017-07-20T02:09:27.845Z,21
2017-07-20T02:09:37.839Z,21
2017-07-20T02:09:47.836Z,21
2017-07-20T02:09:57.830Z,20.9
2017-07-20T02:10:07.821Z,20.9
2017-07-20T02:10:17.823Z,21
2017-07-20T02:10:27.811Z,20.9
2017-07-20T02:10:37.810Z,20.9
2017-07-20T02:10:47.804Z,20.9
2017-07-20T02:10:57.803Z,20.9
2017-07-20T02:11:07.795Z,20.9
2017-07-20T02:11:17.793Z,20.9
2017-07-20T02:11:27.789Z,20.8
2017-07-20T02:11:37.784Z,20.8
2017-07-20T02:11:47.774Z,20.9
2017-07-20T02:11:57.777Z,20.9
2017-07-20T02:12:07.768Z,20.8
2017-07-20T02:12:17.764Z,20.8
2017-07-20T02:12:27.756Z,20.8
2017-07-20T02:12:37.754Z,20.8
2017-07-20T02:12:47.746Z,20.8
2017-07-20T02:12:57.745Z,20.9
2017-07-20T02:13:07.740Z,20.9
2017-07-20T02:13:17.736Z,20.9
2017-07-20T02:13:27.730Z,20.9
2017-07-20T02:13:37.728Z,20.9
2017-07-20T02:13:47.721Z,21
2017-07-20T02:13:57.712Z,21
2017-07-20T02:14:07.711Z,20.9